sensor_id;sensor_type;location;lat;lon;timestamp;P1;durP1;ratioP1;P2;durP2;ratioP2
60352;SDS011;46196;52.970;6.954;2023-05-01T00:00:46;16.90;;;6.60;;
60352;SDS011;46196;52.970;6.954;2023-05-01T00:03:13;15.15;;;6.57;;
60352;SDS011;46196;52.970;6.954;2023-05-01T00:05:38;18.67;;;7.35;;
60352;SDS011;46196;52.970;6.954;2023-05-01T00:08:04;17.17;;;8.00;;
60352;SDS011;46196;52.970;6.954;2023-05-01T00:10:30;14.45;;;7.80;;
60352;SDS011;46196;52.970;6.954;2023-05-01T00:12:55;15.90;;;7.32;;
60352;SDS011;46196;52.970;6.954;2023-05-01T00:15:21;15.10;;;6.07;;
60352;SDS011;46196;52.970;6.954;2023-05-01T00:17:47;15.77;;;6.95;;
60352;SDS011;46196;52.970;6.954;2023-05-01T00:20:14;17.33;;;7.88;;
60352;SDS011;46196;52.970;6.954;2023-05-01T00:22:40;14.85;;;7.22;;
60352;SDS011;46196;52.970;6.954;2023-05-01T00:25:06;16.52;;;7.38;;
60352;SDS011;46196;52.970;6.954;2023-05-01T00:27:32;14.02;;;7.03;;
60352;SDS011;46196;52.970;6.954;2023-05-01T00:29:58;15.80;;;6.88;;
60352;SDS011;46196;52.970;6.954;2023-05-01T00:32:24;14.93;;;6.80;;
60352;SDS011;46196;52.970;6.954;2023-05-01T00:34:49;14.75;;;5.65;;
60352;SDS011;46196;52.970;6.954;2023-05-01T00:37:15;15.18;;;6.75;;
60352;SDS011;46196;52.970;6.954;2023-05-01T00:39:41;17.23;;;6.70;;
60352;SDS011;46196;52.970;6.954;2023-05-01T00:42:07;15.85;;;7.07;;
60352;SDS011;46196;52.970;6.954;2023-05-01T00:44:32;15.82;;;6.90;;
60352;SDS011;46196;52.970;6.954;2023-05-01T00:46:58;13.63;;;6.43;;
60352;SDS011;46196;52.970;6.954;2023-05-01T00:49:26;22.40;;;6.43;;
60352;SDS011;46196;52.970;6.954;2023-05-01T00:51:52;13.85;;;6.43;;
60352;SDS011;46196;52.970;6.954;2023-05-01T00:54:18;16.63;;;6.63;;
60352;SDS011;46196;52.970;6.954;2023-05-01T00:56:47;14.57;;;6.65;;
60352;SDS011;46196;52.970;6.954;2023-05-01T00:59:15;13.77;;;6.30;;
60352;SDS011;46196;52.970;6.954;2023-05-01T01:01:41;17.00;;;7.32;;
60352;SDS011;46196;52.970;6.954;2023-05-01T01:04:06;13.38;;;6.07;;
60352;SDS011;46196;52.970;6.954;2023-05-01T01:09:12;13.32;;;6.60;;
60352;SDS011;46196;52.970;6.954;2023-05-01T01:14:28;14.55;;;6.47;;
60352;SDS011;46196;52.970;6.954;2023-05-01T01:22:40;15.48;;;5.88;;
60352;SDS011;46196;52.970;6.954;2023-05-01T01:25:39;13.73;;;6.18;;
60352;SDS011;46196;52.970;6.954;2023-05-01T01:36:18;13.75;;;6.50;;
60352;SDS011;46196;52.970;6.954;2023-05-01T01:42:00;14.07;;;6.18;;
60352;SDS011;46196;52.970;6.954;2023-05-01T01:44:33;15.07;;;6.72;;
60352;SDS011;46196;52.970;6.954;2023-05-01T01:47:04;15.38;;;6.07;;
60352;SDS011;46196;52.970;6.954;2023-05-01T01:49:32;13.60;;;6.95;;
60352;SDS011;46196;52.970;6.954;2023-05-01T01:52:01;14.82;;;5.93;;
60352;SDS011;46196;52.970;6.954;2023-05-01T01:54:34;12.57;;;6.03;;
60352;SDS011;46196;52.970;6.954;2023-05-01T01:57:04;13.07;;;6.53;;
60352;SDS011;46196;52.970;6.954;2023-05-01T01:59:32;13.60;;;6.47;;
60352;SDS011;46196;52.970;6.954;2023-05-01T02:01:59;15.32;;;7.13;;
60352;SDS011;46196;52.970;6.954;2023-05-01T02:04:27;9.88;;;5.70;;
60352;SDS011;46196;52.970;6.954;2023-05-01T02:06:57;10.23;;;6.25;;
60352;SDS011;46196;52.970;6.954;2023-05-01T02:09:25;12.45;;;6.43;;
60352;SDS011;46196;52.970;6.954;2023-05-01T02:11:53;12.80;;;6.00;;
60352;SDS011;46196;52.970;6.954;2023-05-01T02:14:20;13.35;;;6.80;;
60352;SDS011;46196;52.970;6.954;2023-05-01T02:16:47;12.45;;;6.10;;
60352;SDS011;46196;52.970;6.954;2023-05-01T02:19:14;13.23;;;6.10;;
60352;SDS011;46196;52.970;6.954;2023-05-01T02:21:41;14.10;;;6.03;;
60352;SDS011;46196;52.970;6.954;2023-05-01T02:24:07;11.18;;;5.63;;
60352;SDS011;46196;52.970;6.954;2023-05-01T02:26:39;11.55;;;6.22;;
60352;SDS011;46196;52.970;6.954;2023-05-01T02:29:07;13.35;;;6.00;;
60352;SDS011;46196;52.970;6.954;2023-05-01T02:31:33;13.25;;;6.35;;
60352;SDS011;46196;52.970;6.954;2023-05-01T02:33:59;12.73;;;6.95;;
60352;SDS011;46196;52.970;6.954;2023-05-01T02:36:25;12.23;;;7.30;;
60352;SDS011;46196;52.970;6.954;2023-05-01T02:38:52;13.68;;;6.57;;
60352;SDS011;46196;52.970;6.954;2023-05-01T02:41:19;15.10;;;7.07;;
60352;SDS011;46196;52.970;6.954;2023-05-01T02:43:46;18.65;;;7.28;;
60352;SDS011;46196;52.970;6.954;2023-05-01T02:46:15;14.75;;;6.88;;
60352;SDS011;46196;52.970;6.954;2023-05-01T02:48:42;16.10;;;7.60;;
60352;SDS011;46196;52.970;6.954;2023-05-01T02:51:09;12.90;;;6.88;;
60352;SDS011;46196;52.970;6.954;2023-05-01T02:53:35;11.55;;;6.57;;
60352;SDS011;46196;52.970;6.954;2023-05-01T02:56:02;15.02;;;7.03;;
60352;SDS011;46196;52.970;6.954;2023-05-01T02:58:29;15.48;;;6.88;;
60352;SDS011;46196;52.970;6.954;2023-05-01T03:00:56;13.75;;;6.70;;
60352;SDS011;46196;52.970;6.954;2023-05-01T03:03:22;13.98;;;6.53;;
60352;SDS011;46196;52.970;6.954;2023-05-01T03:05:47;15.15;;;6.53;;
60352;SDS011;46196;52.970;6.954;2023-05-01T03:08:13;13.35;;;6.78;;
60352;SDS011;46196;52.970;6.954;2023-05-01T03:10:39;15.50;;;6.88;;
60352;SDS011;46196;52.970;6.954;2023-05-01T03:13:08;13.43;;;6.95;;
60352;SDS011;46196;52.970;6.954;2023-05-01T03:15:35;12.93;;;6.32;;
60352;SDS011;46196;52.970;6.954;2023-05-01T03:18:02;16.02;;;8.23;;
60352;SDS011;46196;52.970;6.954;2023-05-01T03:20:28;13.02;;;6.82;;
60352;SDS011;46196;52.970;6.954;2023-05-01T03:22:54;15.07;;;7.15;;
60352;SDS011;46196;52.970;6.954;2023-05-01T03:25:20;10.57;;;6.38;;
60352;SDS011;46196;52.970;6.954;2023-05-01T03:27:46;13.18;;;6.93;;
60352;SDS011;46196;52.970;6.954;2023-05-01T03:30:14;15.02;;;6.55;;
60352;SDS011;46196;52.970;6.954;2023-05-01T03:32:40;15.10;;;6.72;;
60352;SDS011;46196;52.970;6.954;2023-05-01T03:35:06;16.73;;;7.00;;
60352;SDS011;46196;52.970;6.954;2023-05-01T03:37:33;13.98;;;6.82;;
60352;SDS011;46196;52.970;6.954;2023-05-01T03:39:59;14.57;;;6.47;;
60352;SDS011;46196;52.970;6.954;2023-05-01T03:42:24;12.20;;;6.25;;
60352;SDS011;46196;52.970;6.954;2023-05-01T03:44:50;14.57;;;7.20;;
60352;SDS011;46196;52.970;6.954;2023-05-01T03:47:16;14.38;;;6.13;;
60352;SDS011;46196;52.970;6.954;2023-05-01T03:49:43;13.07;;;6.15;;
60352;SDS011;46196;52.970;6.954;2023-05-01T03:52:09;13.35;;;7.32;;
60352;SDS011;46196;52.970;6.954;2023-05-01T03:54:38;15.80;;;6.85;;
60352;SDS011;46196;52.970;6.954;2023-05-01T03:57:04;15.75;;;7.25;;
60352;SDS011;46196;52.970;6.954;2023-05-01T03:59:31;15.02;;;6.35;;
60352;SDS011;46196;52.970;6.954;2023-05-01T04:01:56;14.85;;;6.80;;
60352;SDS011;46196;52.970;6.954;2023-05-01T04:04:22;14.30;;;6.55;;
60352;SDS011;46196;52.970;6.954;2023-05-01T04:06:47;13.93;;;6.70;;
60352;SDS011;46196;52.970;6.954;2023-05-01T04:09:14;13.43;;;6.75;;
60352;SDS011;46196;52.970;6.954;2023-05-01T04:11:40;15.75;;;6.40;;
60352;SDS011;46196;52.970;6.954;2023-05-01T04:14:05;15.10;;;5.85;;
60352;SDS011;46196;52.970;6.954;2023-05-01T04:16:31;12.07;;;7.45;;
60352;SDS011;46196;52.970;6.954;2023-05-01T04:18:57;11.70;;;7.07;;
60352;SDS011;46196;52.970;6.954;2023-05-01T04:21:23;14.32;;;6.68;;
60352;SDS011;46196;52.970;6.954;2023-05-01T04:23:48;14.23;;;7.15;;
60352;SDS011;46196;52.970;6.954;2023-05-01T04:26:14;12.45;;;6.75;;
60352;SDS011;46196;52.970;6.954;2023-05-01T04:28:40;16.00;;;6.68;;
60352;SDS011;46196;52.970;6.954;2023-05-01T04:31:06;11.43;;;6.50;;
60352;SDS011;46196;52.970;6.954;2023-05-01T04:33:31;11.00;;;6.70;;
60352;SDS011;46196;52.970;6.954;2023-05-01T04:35:57;16.45;;;7.57;;
60352;SDS011;46196;52.970;6.954;2023-05-01T04:38:23;13.25;;;7.18;;
60352;SDS011;46196;52.970;6.954;2023-05-01T04:40:48;12.20;;;6.35;;
60352;SDS011;46196;52.970;6.954;2023-05-01T04:43:14;12.50;;;6.15;;
60352;SDS011;46196;52.970;6.954;2023-05-01T04:45:40;13.30;;;7.55;;
60352;SDS011;46196;52.970;6.954;2023-05-01T04:48:06;12.18;;;7.63;;
60352;SDS011;46196;52.970;6.954;2023-05-01T04:50:31;15.43;;;6.78;;
60352;SDS011;46196;52.970;6.954;2023-05-01T04:52:57;11.38;;;7.00;;
60352;SDS011;46196;52.970;6.954;2023-05-01T04:55:23;16.95;;;6.60;;
60352;SDS011;46196;52.970;6.954;2023-05-01T04:57:49;10.70;;;6.60;;
60352;SDS011;46196;52.970;6.954;2023-05-01T05:00:16;11.30;;;6.68;;
60352;SDS011;46196;52.970;6.954;2023-05-01T05:02:43;13.10;;;7.13;;
60352;SDS011;46196;52.970;6.954;2023-05-01T05:05:10;14.73;;;8.05;;
60352;SDS011;46196;52.970;6.954;2023-05-01T05:07:36;18.88;;;7.38;;
60352;SDS011;46196;52.970;6.954;2023-05-01T05:10:02;13.15;;;7.00;;
60352;SDS011;46196;52.970;6.954;2023-05-01T05:12:28;13.90;;;7.13;;
60352;SDS011;46196;52.970;6.954;2023-05-01T05:14:53;14.63;;;6.63;;
60352;SDS011;46196;52.970;6.954;2023-05-01T05:17:19;14.35;;;7.60;;
60352;SDS011;46196;52.970;6.954;2023-05-01T05:19:45;14.05;;;7.13;;
60352;SDS011;46196;52.970;6.954;2023-05-01T05:22:10;13.50;;;6.80;;
60352;SDS011;46196;52.970;6.954;2023-05-01T05:24:36;13.18;;;7.00;;
60352;SDS011;46196;52.970;6.954;2023-05-01T05:27:03;13.05;;;7.05;;
60352;SDS011;46196;52.970;6.954;2023-05-01T05:29:30;12.57;;;7.03;;
60352;SDS011;46196;52.970;6.954;2023-05-01T05:31:56;22.10;;;9.45;;
60352;SDS011;46196;52.970;6.954;2023-05-01T05:34:23;12.13;;;7.28;;
60352;SDS011;46196;52.970;6.954;2023-05-01T05:36:49;13.18;;;7.05;;
60352;SDS011;46196;52.970;6.954;2023-05-01T05:39:15;14.82;;;7.40;;
60352;SDS011;46196;52.970;6.954;2023-05-01T05:41:41;11.35;;;6.65;;
60352;SDS011;46196;52.970;6.954;2023-05-01T05:44:06;12.25;;;6.40;;
60352;SDS011;46196;52.970;6.954;2023-05-01T05:46:32;13.57;;;6.70;;
60352;SDS011;46196;52.970;6.954;2023-05-01T05:48:58;11.23;;;7.68;;
60352;SDS011;46196;52.970;6.954;2023-05-01T05:51:23;13.02;;;8.30;;
60352;SDS011;46196;52.970;6.954;2023-05-01T05:53:49;13.82;;;6.72;;
60352;SDS011;46196;52.970;6.954;2023-05-01T05:56:15;10.55;;;6.60;;
60352;SDS011;46196;52.970;6.954;2023-05-01T05:58:41;19.38;;;7.07;;
60352;SDS011;46196;52.970;6.954;2023-05-01T06:01:07;12.23;;;6.72;;
60352;SDS011;46196;52.970;6.954;2023-05-01T06:03:33;10.75;;;7.72;;
60352;SDS011;46196;52.970;6.954;2023-05-01T06:06:00;15.13;;;7.45;;
60352;SDS011;46196;52.970;6.954;2023-05-01T06:08:26;11.05;;;6.70;;
60352;SDS011;46196;52.970;6.954;2023-05-01T06:10:51;9.95;;;6.35;;
60352;SDS011;46196;52.970;6.954;2023-05-01T06:13:17;11.45;;;6.45;;
60352;SDS011;46196;52.970;6.954;2023-05-01T06:15:43;11.80;;;6.88;;
60352;SDS011;46196;52.970;6.954;2023-05-01T06:18:09;11.23;;;6.57;;
60352;SDS011;46196;52.970;6.954;2023-05-01T06:20:35;8.63;;;6.00;;
60352;SDS011;46196;52.970;6.954;2023-05-01T06:23:02;13.95;;;8.45;;
60352;SDS011;46196;52.970;6.954;2023-05-01T06:25:28;11.68;;;7.20;;
60352;SDS011;46196;52.970;6.954;2023-05-01T06:27:54;12.85;;;6.90;;
60352;SDS011;46196;52.970;6.954;2023-05-01T06:30:20;13.95;;;6.68;;
60352;SDS011;46196;52.970;6.954;2023-05-01T06:32:46;12.00;;;7.18;;
60352;SDS011;46196;52.970;6.954;2023-05-01T06:35:11;11.63;;;6.68;;
60352;SDS011;46196;52.970;6.954;2023-05-01T06:37:38;8.85;;;6.00;;
60352;SDS011;46196;52.970;6.954;2023-05-01T06:40:04;10.10;;;6.15;;
60352;SDS011;46196;52.970;6.954;2023-05-01T06:42:31;11.30;;;6.90;;
60352;SDS011;46196;52.970;6.954;2023-05-01T06:44:57;13.82;;;7.95;;
60352;SDS011;46196;52.970;6.954;2023-05-01T06:47:23;12.02;;;6.47;;
60352;SDS011;46196;52.970;6.954;2023-05-01T06:49:48;8.57;;;6.40;;
60352;SDS011;46196;52.970;6.954;2023-05-01T06:52:14;11.43;;;6.82;;
60352;SDS011;46196;52.970;6.954;2023-05-01T06:54:40;9.90;;;6.13;;
60352;SDS011;46196;52.970;6.954;2023-05-01T06:57:06;13.18;;;6.68;;
60352;SDS011;46196;52.970;6.954;2023-05-01T06:59:31;9.73;;;5.95;;
60352;SDS011;46196;52.970;6.954;2023-05-01T07:01:57;10.93;;;6.07;;
60352;SDS011;46196;52.970;6.954;2023-05-01T07:04:23;11.15;;;6.60;;
60352;SDS011;46196;52.970;6.954;2023-05-01T07:06:48;10.75;;;6.00;;
60352;SDS011;46196;52.970;6.954;2023-05-01T07:09:14;9.98;;;5.78;;
60352;SDS011;46196;52.970;6.954;2023-05-01T07:11:40;10.95;;;6.13;;
60352;SDS011;46196;52.970;6.954;2023-05-01T07:14:09;8.23;;;5.00;;
60352;SDS011;46196;52.970;6.954;2023-05-01T07:16:34;15.30;;;5.88;;
60352;SDS011;46196;52.970;6.954;2023-05-01T07:19:00;7.72;;;4.95;;
60352;SDS011;46196;52.970;6.954;2023-05-01T07:21:26;9.15;;;5.07;;
60352;SDS011;46196;52.970;6.954;2023-05-01T07:23:51;13.30;;;6.30;;
60352;SDS011;46196;52.970;6.954;2023-05-01T07:26:17;8.50;;;4.53;;
60352;SDS011;46196;52.970;6.954;2023-05-01T07:28:43;9.05;;;5.05;;
60352;SDS011;46196;52.970;6.954;2023-05-01T07:31:09;9.55;;;5.40;;
60352;SDS011;46196;52.970;6.954;2023-05-01T07:33:35;8.75;;;4.88;;
60352;SDS011;46196;52.970;6.954;2023-05-01T07:36:01;9.50;;;5.38;;
60352;SDS011;46196;52.970;6.954;2023-05-01T07:38:28;7.78;;;5.53;;
60352;SDS011;46196;52.970;6.954;2023-05-01T07:40:54;8.80;;;4.80;;
60352;SDS011;46196;52.970;6.954;2023-05-01T07:43:21;9.40;;;5.47;;
60352;SDS011;46196;52.970;6.954;2023-05-01T07:45:53;9.55;;;5.30;;
60352;SDS011;46196;52.970;6.954;2023-05-01T07:48:24;7.30;;;5.22;;
60352;SDS011;46196;52.970;6.954;2023-05-01T07:50:50;11.13;;;5.53;;
60352;SDS011;46196;52.970;6.954;2023-05-01T07:53:16;8.88;;;5.45;;
60352;SDS011;46196;52.970;6.954;2023-05-01T07:55:42;10.60;;;5.78;;
60352;SDS011;46196;52.970;6.954;2023-05-01T07:58:08;9.27;;;5.60;;
60352;SDS011;46196;52.970;6.954;2023-05-01T08:00:34;11.07;;;6.03;;
60352;SDS011;46196;52.970;6.954;2023-05-01T08:03:00;8.65;;;5.90;;
60352;SDS011;46196;52.970;6.954;2023-05-01T08:05:26;11.18;;;5.93;;
60352;SDS011;46196;52.970;6.954;2023-05-01T08:07:51;11.90;;;6.60;;
60352;SDS011;46196;52.970;6.954;2023-05-01T08:10:17;9.82;;;5.80;;
60352;SDS011;46196;52.970;6.954;2023-05-01T08:12:43;12.35;;;5.97;;
60352;SDS011;46196;52.970;6.954;2023-05-01T08:15:08;10.98;;;6.10;;
60352;SDS011;46196;52.970;6.954;2023-05-01T08:17:34;8.63;;;6.07;;
60352;SDS011;46196;52.970;6.954;2023-05-01T08:20:01;10.88;;;6.15;;
60352;SDS011;46196;52.970;6.954;2023-05-01T08:22:27;11.48;;;5.80;;
60352;SDS011;46196;52.970;6.954;2023-05-01T08:24:53;12.65;;;5.78;;
60352;SDS011;46196;52.970;6.954;2023-05-01T08:27:19;8.77;;;6.13;;
60352;SDS011;46196;52.970;6.954;2023-05-01T08:29:45;10.15;;;6.68;;
60352;SDS011;46196;52.970;6.954;2023-05-01T08:32:11;11.65;;;6.25;;
60352;SDS011;46196;52.970;6.954;2023-05-01T08:34:37;10.35;;;6.07;;
60352;SDS011;46196;52.970;6.954;2023-05-01T08:37:03;13.10;;;6.20;;
60352;SDS011;46196;52.970;6.954;2023-05-01T08:39:29;10.65;;;6.65;;
60352;SDS011;46196;52.970;6.954;2023-05-01T08:41:55;9.88;;;6.07;;
60352;SDS011;46196;52.970;6.954;2023-05-01T08:44:23;9.85;;;6.80;;
60352;SDS011;46196;52.970;6.954;2023-05-01T08:49:39;9.68;;;6.00;;
60352;SDS011;46196;52.970;6.954;2023-05-01T08:52:06;10.20;;;6.07;;
60352;SDS011;46196;52.970;6.954;2023-05-01T08:54:33;13.95;;;6.40;;
60352;SDS011;46196;52.970;6.954;2023-05-01T08:57:01;12.27;;;6.65;;
60352;SDS011;46196;52.970;6.954;2023-05-01T08:59:31;10.63;;;6.35;;
60352;SDS011;46196;52.970;6.954;2023-05-01T09:01:59;9.27;;;6.05;;
60352;SDS011;46196;52.970;6.954;2023-05-01T09:04:28;12.60;;;6.15;;
60352;SDS011;46196;52.970;6.954;2023-05-01T09:06:56;13.52;;;6.35;;
60352;SDS011;46196;52.970;6.954;2023-05-01T09:09:25;11.98;;;6.60;;
60352;SDS011;46196;52.970;6.954;2023-05-01T09:11:52;11.20;;;6.97;;
60352;SDS011;46196;52.970;6.954;2023-05-01T09:14:20;10.63;;;6.25;;
60352;SDS011;46196;52.970;6.954;2023-05-01T09:16:45;12.48;;;6.70;;
60352;SDS011;46196;52.970;6.954;2023-05-01T09:19:11;8.88;;;6.35;;
60352;SDS011;46196;52.970;6.954;2023-05-01T09:21:37;13.82;;;6.65;;
60352;SDS011;46196;52.970;6.954;2023-05-01T09:24:03;9.45;;;6.38;;
60352;SDS011;46196;52.970;6.954;2023-05-01T09:26:28;13.65;;;6.95;;
60352;SDS011;46196;52.970;6.954;2023-05-01T09:28:55;11.75;;;7.25;;
60352;SDS011;46196;52.970;6.954;2023-05-01T09:33:53;10.63;;;7.32;;
60352;SDS011;46196;52.970;6.954;2023-05-01T09:36:30;12.02;;;6.07;;
60352;SDS011;46196;52.970;6.954;2023-05-01T09:38:57;11.75;;;6.78;;
60352;SDS011;46196;52.970;6.954;2023-05-01T09:41:26;13.48;;;6.70;;
60352;SDS011;46196;52.970;6.954;2023-05-01T09:43:56;10.68;;;6.20;;
60352;SDS011;46196;52.970;6.954;2023-05-01T09:46:23;8.80;;;6.20;;
60352;SDS011;46196;52.970;6.954;2023-05-01T09:53:48;14.40;;;6.80;;
60352;SDS011;46196;52.970;6.954;2023-05-01T09:56:14;11.05;;;5.78;;
60352;SDS011;46196;52.970;6.954;2023-05-01T09:58:40;11.52;;;6.30;;
60352;SDS011;46196;52.970;6.954;2023-05-01T10:01:05;9.85;;;5.90;;
60352;SDS011;46196;52.970;6.954;2023-05-01T10:03:33;8.18;;;5.72;;
60352;SDS011;46196;52.970;6.954;2023-05-01T10:05:58;10.63;;;6.00;;
60352;SDS011;46196;52.970;6.954;2023-05-01T10:08:33;13.07;;;6.20;;
60352;SDS011;46196;52.970;6.954;2023-05-01T10:11:12;10.27;;;6.72;;
60352;SDS011;46196;52.970;6.954;2023-05-01T10:13:38;12.88;;;6.55;;
60352;SDS011;46196;52.970;6.954;2023-05-01T10:16:03;10.45;;;6.68;;
60352;SDS011;46196;52.970;6.954;2023-05-01T10:18:34;9.05;;;6.40;;
60352;SDS011;46196;52.970;6.954;2023-05-01T10:21:02;11.90;;;5.95;;
60352;SDS011;46196;52.970;6.954;2023-05-01T10:23:28;9.65;;;5.47;;
60352;SDS011;46196;52.970;6.954;2023-05-01T10:25:55;12.35;;;5.65;;
60352;SDS011;46196;52.970;6.954;2023-05-01T10:28:22;10.68;;;5.82;;
60352;SDS011;46196;52.970;6.954;2023-05-01T10:30:49;9.50;;;4.93;;
60352;SDS011;46196;52.970;6.954;2023-05-01T10:33:15;7.78;;;5.05;;
60352;SDS011;46196;52.970;6.954;2023-05-01T10:35:43;9.73;;;4.97;;
60352;SDS011;46196;52.970;6.954;2023-05-01T10:38:18;9.30;;;5.10;;
60352;SDS011;46196;52.970;6.954;2023-05-01T10:40:48;9.20;;;4.95;;
60352;SDS011;46196;52.970;6.954;2023-05-01T10:45:44;12.77;;;4.60;;
60352;SDS011;46196;52.970;6.954;2023-05-01T10:48:11;11.73;;;5.22;;
60352;SDS011;46196;52.970;6.954;2023-05-01T10:53:42;12.38;;;5.88;;
60352;SDS011;46196;52.970;6.954;2023-05-01T10:58:57;12.73;;;5.90;;
60352;SDS011;46196;52.970;6.954;2023-05-01T11:12:03;10.88;;;5.28;;
60352;SDS011;46196;52.970;6.954;2023-05-01T11:22:34;10.32;;;5.10;;
60352;SDS011;46196;52.970;6.954;2023-05-01T11:25:01;9.75;;;5.18;;
60352;SDS011;46196;52.970;6.954;2023-05-01T11:27:30;9.10;;;4.57;;
60352;SDS011;46196;52.970;6.954;2023-05-01T11:29:57;7.72;;;4.63;;
60352;SDS011;46196;52.970;6.954;2023-05-01T11:32:26;10.30;;;4.55;;
60352;SDS011;46196;52.970;6.954;2023-05-01T11:34:54;9.52;;;5.60;;
60352;SDS011;46196;52.970;6.954;2023-05-01T11:37:42;8.73;;;5.13;;
60352;SDS011;46196;52.970;6.954;2023-05-01T11:40:18;12.82;;;5.07;;
60352;SDS011;46196;52.970;6.954;2023-05-01T11:42:49;9.57;;;5.13;;
60352;SDS011;46196;52.970;6.954;2023-05-01T11:45:18;10.48;;;4.35;;
60352;SDS011;46196;52.970;6.954;2023-05-01T11:50:10;8.10;;;4.97;;
60352;SDS011;46196;52.970;6.954;2023-05-01T11:52:44;9.30;;;4.70;;
60352;SDS011;46196;52.970;6.954;2023-05-01T11:55:13;8.90;;;4.88;;
60352;SDS011;46196;52.970;6.954;2023-05-01T11:57:46;12.45;;;4.85;;
60352;SDS011;46196;52.970;6.954;2023-05-01T12:00:29;7.72;;;4.30;;
60352;SDS011;46196;52.970;6.954;2023-05-01T12:03:01;7.13;;;4.53;;
60352;SDS011;46196;52.970;6.954;2023-05-01T12:05:31;8.57;;;4.25;;
60352;SDS011;46196;52.970;6.954;2023-05-01T12:10:46;6.75;;;4.18;;
60352;SDS011;46196;52.970;6.954;2023-05-01T12:13:22;9.20;;;5.20;;
60352;SDS011;46196;52.970;6.954;2023-05-01T12:15:53;9.65;;;3.90;;
60352;SDS011;46196;52.970;6.954;2023-05-01T12:18:19;8.60;;;4.43;;
60352;SDS011;46196;52.970;6.954;2023-05-01T12:20:46;6.28;;;3.75;;
60352;SDS011;46196;52.970;6.954;2023-05-01T12:23:14;9.70;;;4.53;;
60352;SDS011;46196;52.970;6.954;2023-05-01T12:25:41;7.15;;;4.20;;
60352;SDS011;46196;52.970;6.954;2023-05-01T12:28:08;11.88;;;4.45;;
60352;SDS011;46196;52.970;6.954;2023-05-01T12:30:40;9.25;;;3.75;;
60352;SDS011;46196;52.970;6.954;2023-05-01T12:33:10;6.85;;;3.45;;
60352;SDS011;46196;52.970;6.954;2023-05-01T12:35:38;8.55;;;3.30;;
60352;SDS011;46196;52.970;6.954;2023-05-01T12:41:00;4.78;;;3.40;;
60352;SDS011;46196;52.970;6.954;2023-05-01T12:43:29;6.05;;;3.17;;
60352;SDS011;46196;52.970;6.954;2023-05-01T12:46:00;7.75;;;3.53;;
60352;SDS011;46196;52.970;6.954;2023-05-01T12:48:27;5.15;;;3.35;;
60352;SDS011;46196;52.970;6.954;2023-05-01T12:50:54;8.82;;;3.50;;
60352;SDS011;46196;52.970;6.954;2023-05-01T12:53:25;7.97;;;3.40;;
60352;SDS011;46196;52.970;6.954;2023-05-01T12:55:54;8.15;;;3.45;;
60352;SDS011;46196;52.970;6.954;2023-05-01T12:58:21;5.75;;;2.72;;
60352;SDS011;46196;52.970;6.954;2023-05-01T13:00:53;4.60;;;2.80;;
60352;SDS011;46196;52.970;6.954;2023-05-01T13:03:26;5.53;;;3.00;;
60352;SDS011;46196;52.970;6.954;2023-05-01T13:05:57;6.95;;;3.70;;
60352;SDS011;46196;52.970;6.954;2023-05-01T13:08:25;9.25;;;3.53;;
60352;SDS011;46196;52.970;6.954;2023-05-01T13:10:54;7.13;;;3.22;;
60352;SDS011;46196;52.970;6.954;2023-05-01T13:13:24;5.35;;;3.22;;
60352;SDS011;46196;52.970;6.954;2023-05-01T13:16:11;5.45;;;3.10;;
60352;SDS011;46196;52.970;6.954;2023-05-01T13:18:45;6.75;;;3.53;;
60352;SDS011;46196;52.970;6.954;2023-05-01T13:21:12;6.63;;;3.17;;
60352;SDS011;46196;52.970;6.954;2023-05-01T13:23:50;5.38;;;3.05;;
60352;SDS011;46196;52.970;6.954;2023-05-01T13:26:17;6.30;;;3.67;;
60352;SDS011;46196;52.970;6.954;2023-05-01T13:28:53;8.05;;;4.47;;
60352;SDS011;46196;52.970;6.954;2023-05-01T13:31:19;7.65;;;3.50;;
60352;SDS011;46196;52.970;6.954;2023-05-01T13:33:45;7.45;;;3.28;;
60352;SDS011;46196;52.970;6.954;2023-05-01T13:36:17;5.65;;;3.05;;
60352;SDS011;46196;52.970;6.954;2023-05-01T13:38:47;6.97;;;3.35;;
60352;SDS011;46196;52.970;6.954;2023-05-01T13:41:16;5.05;;;2.95;;
60352;SDS011;46196;52.970;6.954;2023-05-01T13:43:43;8.02;;;2.95;;
60352;SDS011;46196;52.970;6.954;2023-05-01T13:46:14;6.40;;;3.15;;
60352;SDS011;46196;52.970;6.954;2023-05-01T13:48:41;5.00;;;2.87;;
60352;SDS011;46196;52.970;6.954;2023-05-01T13:51:07;7.10;;;3.08;;
60352;SDS011;46196;52.970;6.954;2023-05-01T13:53:34;5.65;;;3.30;;
60352;SDS011;46196;52.970;6.954;2023-05-01T13:56:03;6.20;;;2.83;;
60352;SDS011;46196;52.970;6.954;2023-05-01T13:58:30;7.45;;;3.22;;
60352;SDS011;46196;52.970;6.954;2023-05-01T14:04:35;5.97;;;2.90;;
60352;SDS011;46196;52.970;6.954;2023-05-01T14:07:00;5.10;;;3.00;;
60352;SDS011;46196;52.970;6.954;2023-05-01T14:09:26;6.32;;;2.88;;
60352;SDS011;46196;52.970;6.954;2023-05-01T14:11:52;6.43;;;3.13;;
60352;SDS011;46196;52.970;6.954;2023-05-01T14:14:19;9.35;;;3.38;;
60352;SDS011;46196;52.970;6.954;2023-05-01T14:16:45;5.43;;;3.10;;
60352;SDS011;46196;52.970;6.954;2023-05-01T14:19:15;5.93;;;3.30;;
60352;SDS011;46196;52.970;6.954;2023-05-01T14:21:42;5.78;;;3.00;;
60352;SDS011;46196;52.970;6.954;2023-05-01T14:24:09;5.90;;;3.38;;
60352;SDS011;46196;52.970;6.954;2023-05-01T14:26:38;7.25;;;3.40;;
60352;SDS011;46196;52.970;6.954;2023-05-01T14:29:06;8.32;;;3.60;;
60352;SDS011;46196;52.970;6.954;2023-05-01T14:31:49;7.80;;;3.65;;
60352;SDS011;46196;52.970;6.954;2023-05-01T14:34:16;7.35;;;3.90;;
60352;SDS011;46196;52.970;6.954;2023-05-01T14:36:44;10.05;;;3.50;;
60352;SDS011;46196;52.970;6.954;2023-05-01T14:39:09;6.72;;;3.75;;
60352;SDS011;46196;52.970;6.954;2023-05-01T14:41:38;7.13;;;3.30;;
60352;SDS011;46196;52.970;6.954;2023-05-01T14:44:09;7.53;;;3.92;;
60352;SDS011;46196;52.970;6.954;2023-05-01T14:46:42;7.13;;;3.10;;
60352;SDS011;46196;52.970;6.954;2023-05-01T14:49:18;8.55;;;3.25;;
60352;SDS011;46196;52.970;6.954;2023-05-01T14:51:48;5.93;;;2.92;;
60352;SDS011;46196;52.970;6.954;2023-05-01T14:54:15;5.65;;;3.33;;
60352;SDS011;46196;52.970;6.954;2023-05-01T14:56:41;5.45;;;2.60;;
60352;SDS011;46196;52.970;6.954;2023-05-01T14:59:08;4.55;;;2.55;;
60352;SDS011;46196;52.970;6.954;2023-05-01T15:01:33;4.85;;;2.70;;
60352;SDS011;46196;52.970;6.954;2023-05-01T15:03:59;5.40;;;2.67;;
60352;SDS011;46196;52.970;6.954;2023-05-01T15:06:25;6.95;;;2.92;;
60352;SDS011;46196;52.970;6.954;2023-05-01T15:08:52;5.65;;;3.05;;
60352;SDS011;46196;52.970;6.954;2023-05-01T15:11:18;5.00;;;3.15;;
60352;SDS011;46196;52.970;6.954;2023-05-01T15:13:44;5.40;;;2.90;;
60352;SDS011;46196;52.970;6.954;2023-05-01T15:16:11;6.80;;;2.92;;
60352;SDS011;46196;52.970;6.954;2023-05-01T15:18:37;8.77;;;3.60;;
60352;SDS011;46196;52.970;6.954;2023-05-01T15:21:03;6.82;;;2.90;;
60352;SDS011;46196;52.970;6.954;2023-05-01T15:23:29;7.72;;;3.38;;
60352;SDS011;46196;52.970;6.954;2023-05-01T15:25:56;7.40;;;3.85;;
60352;SDS011;46196;52.970;6.954;2023-05-01T15:28:22;11.93;;;4.00;;
60352;SDS011;46196;52.970;6.954;2023-05-01T15:30:50;7.65;;;3.42;;
60352;SDS011;46196;52.970;6.954;2023-05-01T15:33:16;6.82;;;3.60;;
60352;SDS011;46196;52.970;6.954;2023-05-01T15:35:42;8.68;;;4.05;;
60352;SDS011;46196;52.970;6.954;2023-05-01T15:38:10;10.55;;;4.00;;
60352;SDS011;46196;52.970;6.954;2023-05-01T15:40:36;8.15;;;4.20;;
60352;SDS011;46196;52.970;6.954;2023-05-01T15:43:05;10.27;;;4.55;;
60352;SDS011;46196;52.970;6.954;2023-05-01T15:45:31;10.52;;;4.18;;
60352;SDS011;46196;52.970;6.954;2023-05-01T15:47:57;8.45;;;4.45;;
60352;SDS011;46196;52.970;6.954;2023-05-01T15:50:22;7.07;;;4.07;;
60352;SDS011;46196;52.970;6.954;2023-05-01T15:52:48;10.82;;;4.38;;